createdAt,value
2024-02-06T00:00:17.380Z,168.90
2024-02-06T00:01:16.016Z,169.28
2024-02-06T00:02:14.728Z,169.36
2024-02-06T00:03:14.554Z,169.50
2024-02-06T00:04:14.655Z,169.68
2024-02-06T00:05:14.602Z,170.40
2024-02-06T00:06:14.793Z,172.93
2024-02-06T00:07:20.768Z,170.71
2024-02-06T00:08:15.718Z,170.75
2024-02-06T00:09:14.617Z,170.86
2024-02-06T00:10:14.639Z,170.45
2024-02-06T00:11:14.567Z,171.24
2024-02-06T00:12:14.581Z,170.05
2024-02-06T00:13:14.631Z,169.39
2024-02-06T00:14:14.609Z,172.53
2024-02-06T00:15:14.646Z,169.35
2024-02-06T00:16:14.683Z,170.24
2024-02-06T00:17:14.621Z,170.70
2024-02-06T00:18:14.674Z,171.82
2024-02-06T00:19:14.823Z,167.38
2024-02-06T00:20:14.929Z,169.80
2024-02-06T00:21:14.613Z,169.85
2024-02-06T00:22:14.646Z,170.08
2024-02-06T00:23:14.616Z,168.14
2024-02-06T00:24:14.613Z,169.05
2024-02-06T00:25:14.718Z,166.02
2024-02-06T00:26:14.677Z,169.53
2024-02-06T00:27:14.594Z,171.11
2024-02-06T00:28:14.623Z,168.44
2024-02-06T00:29:14.594Z,169.40
2024-02-06T00:30:14.673Z,168.29
2024-02-06T00:31:14.632Z,168.88
2024-02-06T00:32:14.610Z,169.52
2024-02-06T00:33:14.677Z,166.33
2024-02-06T00:34:14.786Z,168.21
2024-02-06T00:35:14.771Z,169.20
2024-02-06T00:36:14.651Z,168.38
2024-02-06T00:37:14.600Z,167.23
2024-02-06T00:38:14.651Z,167.18
2024-02-06T00:39:14.592Z,167.83
2024-02-06T00:40:15.894Z,168.11
2024-02-06T00:41:14.610Z,167.45
2024-02-06T00:42:14.578Z,166.43
2024-02-06T00:43:14.644Z,166.16
2024-02-06T00:44:14.652Z,166.11
2024-02-06T00:45:14.709Z,166.43
2024-02-06T00:46:14.665Z,165.68
2024-02-06T00:47:14.649Z,166.61
2024-02-06T00:48:14.870Z,165.05
2024-02-06T00:49:15.736Z,165.45
2024-02-06T00:50:14.849Z,165.94
2024-02-06T00:51:14.710Z,167.28
2024-02-06T00:52:14.744Z,165.33
2024-02-06T00:53:14.689Z,165.51
2024-02-06T00:54:14.699Z,162.86
2024-02-06T00:55:14.773Z,164.86
2024-02-06T00:56:15.219Z,164.05
2024-02-06T00:57:14.834Z,162.57
2024-02-06T00:58:14.826Z,163.59
2024-02-06T00:59:14.766Z,163.93
2024-02-06T01:00:14.777Z,162.90
2024-02-06T01:01:14.945Z,162.43
2024-02-06T01:02:14.866Z,162.86
2024-02-06T01:03:14.822Z,162.54
2024-02-06T01:04:14.924Z,162.13
2024-02-06T01:05:14.990Z,160.30
2024-02-06T01:06:14.858Z,158.79
2024-02-06T01:07:15.060Z,159.20
2024-02-06T01:08:14.989Z,160.45
2024-02-06T01:09:14.874Z,158.63
2024-02-06T01:10:14.988Z,159.09
2024-02-06T01:11:14.915Z,157.71
2024-02-06T01:12:14.916Z,159.63
2024-02-06T01:13:15.033Z,157.96
2024-02-06T01:14:14.968Z,158.20
2024-02-06T01:15:14.968Z,158.91
2024-02-06T01:16:15.072Z,157.43
2024-02-06T01:17:14.987Z,158.14
2024-02-06T01:18:15.008Z,156.84
2024-02-06T01:19:15.118Z,157.67
2024-02-06T01:20:15.166Z,155.62
2024-02-06T01:21:15.066Z,158.34
2024-02-06T01:22:15.169Z,157.18
2024-02-06T01:23:15.079Z,159.37
2024-02-06T01:24:15.066Z,155.33
2024-02-06T01:25:15.111Z,154.76
2024-02-06T01:26:15.095Z,156.17
2024-02-06T01:27:15.158Z,155.01
2024-02-06T01:28:15.231Z,154.52
2024-02-06T01:29:15.111Z,155.87
2024-02-06T01:30:15.184Z,155.92
2024-02-06T01:31:15.162Z,152.74
2024-02-06T01:32:15.161Z,152.59
2024-02-06T01:33:15.327Z,151.93
2024-02-06T01:34:15.455Z,154.02
2024-02-06T01:35:15.297Z,153.97
2024-02-06T01:36:15.237Z,151.49
2024-02-06T01:37:15.310Z,151.36
2024-02-06T01:38:15.289Z,152.20
2024-02-06T01:39:15.307Z,150.93
2024-02-06T01:40:15.334Z,151.42
2024-02-06T01:41:15.304Z,150.28
2024-02-06T01:42:15.335Z,149.77
2024-02-06T01:43:15.381Z,150.84
2024-02-06T01:44:15.360Z,150.07
2024-02-06T01:45:15.323Z,148.35
2024-02-06T01:46:15.489Z,150.49
2024-02-06T01:47:15.400Z,150.39
2024-02-06T01:48:15.472Z,149.25
2024-02-06T01:49:15.459Z,149.56
2024-02-06T01:50:15.599Z,149.32
2024-02-06T01:51:15.425Z,149.75
2024-02-06T01:52:15.454Z,147.84
2024-02-06T01:53:15.451Z,147.00
2024-02-06T01:54:15.458Z,148.71
2024-02-06T01:55:15.505Z,149.16
2024-02-06T01:56:15.528Z,147.57
2024-02-06T01:57:15.570Z,147.16
2024-02-06T01:58:15.616Z,145.70
2024-02-06T01:59:15.615Z,146.00
2024-02-06T02:00:15.606Z,143.62
2024-02-06T02:01:15.695Z,143.56
2024-02-06T02:02:15.714Z,143.78
2024-02-06T02:03:15.579Z,147.82
2024-02-06T02:04:15.627Z,146.85
2024-02-06T02:05:15.868Z,146.01
2024-02-06T02:06:15.794Z,144.93
2024-02-06T02:07:15.648Z,143.67
2024-02-06T02:08:15.624Z,144.35
2024-02-06T02:09:15.720Z,143.68
2024-02-06T02:10:15.731Z,144.84
2024-02-06T02:11:15.706Z,142.46
2024-02-06T02:12:15.716Z,141.66
2024-02-06T02:13:16.140Z,143.73
2024-02-06T02:14:15.798Z,141.55
2024-02-06T02:15:15.732Z,142.17
2024-02-06T02:16:15.761Z,141.57
2024-02-06T02:17:15.804Z,137.99
2024-02-06T02:18:15.865Z,138.71
2024-02-06T02:19:16.119Z,142.20
2024-02-06T02:20:15.880Z,138.71
2024-02-06T02:21:15.834Z,141.04
2024-02-06T02:22:15.915Z,137.89
2024-02-06T02:23:23.033Z,141.26
2024-02-06T02:24:16.869Z,141.34
2024-02-06T02:25:15.886Z,139.61
2024-02-06T02:26:15.869Z,139.52
2024-02-06T02:27:15.940Z,139.62
2024-02-06T02:28:15.971Z,136.80
2024-02-06T02:29:15.962Z,137.44
2024-02-06T02:30:15.864Z,136.79
2024-02-06T02:31:15.971Z,138.24
2024-02-06T02:32:15.882Z,136.51
2024-02-06T02:33:15.905Z,136.13
2024-02-06T02:34:16.079Z,134.11
2024-02-06T02:35:15.951Z,136.54
2024-02-06T02:36:15.899Z,134.65
2024-02-06T02:37:15.928Z,138.47
2024-02-06T02:38:15.909Z,135.73
2024-02-06T02:39:15.929Z,134.33
2024-02-06T02:40:15.983Z,135.95
2024-02-06T02:41:15.951Z,135.97
2024-02-06T02:42:15.844Z,135.43
2024-02-06T02:43:15.940Z,134.52
2024-02-06T02:44:15.930Z,133.06
2024-02-06T02:45:15.906Z,131.56
2024-02-06T02:46:15.942Z,131.68
2024-02-06T02:47:15.939Z,132.53
2024-02-06T02:48:16.011Z,133.71
2024-02-06T02:49:16.054Z,130.22
2024-02-06T02:50:15.979Z,133.98
2024-02-06T02:51:15.907Z,131.75
2024-02-06T02:52:16.008Z,131.05
2024-02-06T02:53:16.010Z,131.76
2024-02-06T02:54:16.000Z,128.66
2024-02-06T02:55:16.039Z,133.29
2024-02-06T02:56:16.021Z,129.88
2024-02-06T02:57:16.997Z,130.63
2024-02-06T02:58:16.190Z,133.29
2024-02-06T02:59:16.106Z,131.77
2024-02-06T03:00:16.079Z,128.06
2024-02-06T03:01:16.191Z,128.32
2024-02-06T03:02:16.218Z,131.80
2024-02-06T03:03:16.162Z,131.99
2024-02-06T03:04:16.269Z,133.14
2024-02-06T03:05:16.201Z,126.92
2024-02-06T03:06:16.198Z,129.15
2024-02-06T03:07:16.204Z,128.39
2024-02-06T03:08:16.297Z,128.81
2024-02-06T03:09:16.231Z,130.44
2024-02-06T03:10:16.237Z,128.69
2024-02-06T03:11:16.248Z,128.79
2024-02-06T03:12:16.348Z,127.74
2024-02-06T03:13:16.612Z,129.23
2024-02-06T03:14:16.317Z,126.92
2024-02-06T03:15:16.272Z,127.62
2024-02-06T03:16:16.441Z,126.74
2024-02-06T03:17:16.379Z,127.29
2024-02-06T03:18:16.423Z,129.11
2024-02-06T03:19:16.472Z,127.53
2024-02-06T03:20:16.561Z,127.66
2024-02-06T03:21:16.404Z,127.13
2024-02-06T03:22:16.517Z,125.90
2024-02-06T03:23:16.628Z,123.67
2024-02-06T03:24:16.429Z,126.36
2024-02-06T03:25:16.449Z,126.20
2024-02-06T03:26:16.479Z,126.92
2024-02-06T03:27:16.519Z,126.49
2024-02-06T03:28:16.567Z,126.09
2024-02-06T03:29:16.484Z,125.66
2024-02-06T03:30:16.529Z,123.24
2024-02-06T03:31:16.585Z,125.54
2024-02-06T03:32:16.504Z,124.69
2024-02-06T03:33:16.610Z,127.29
2024-02-06T03:34:17.080Z,124.49
2024-02-06T03:35:17.726Z,123.76
2024-02-06T03:36:16.534Z,125.22
2024-02-06T03:37:16.645Z,125.94
2024-02-06T03:38:16.657Z,124.88
2024-02-06T03:39:16.553Z,124.64
2024-02-06T03:40:16.702Z,122.62
2024-02-06T03:41:16.577Z,122.89
2024-02-06T03:42:16.788Z,124.52
2024-02-06T03:43:16.763Z,124.50
2024-02-06T03:44:16.632Z,122.26
2024-02-06T03:45:16.631Z,125.67
2024-02-06T03:46:16.702Z,121.73
2024-02-06T03:47:16.741Z,124.11
2024-02-06T03:48:16.685Z,124.21
2024-02-06T03:49:16.833Z,121.96
2024-02-06T03:50:16.739Z,122.71
2024-02-06T03:51:16.717Z,120.86
2024-02-06T03:52:16.735Z,121.65
2024-02-06T03:53:16.663Z,121.86
2024-02-06T03:54:16.944Z,120.87
2024-02-06T03:55:16.735Z,118.58
2024-02-06T03:56:16.699Z,122.46
2024-02-06T03:57:18.578Z,120.81
2024-02-06T03:58:16.823Z,120.93
2024-02-06T03:59:16.699Z,120.89
2024-02-06T04:00:16.800Z,122.10
2024-02-06T04:01:16.829Z,121.54
2024-02-06T04:02:16.808Z,119.05
2024-02-06T04:03:16.768Z,118.02
2024-02-06T04:04:17.146Z,119.18
2024-02-06T04:05:16.703Z,119.08
2024-02-06T04:06:16.825Z,118.89
2024-02-06T04:07:16.908Z,118.41
2024-02-06T04:08:16.719Z,118.54
2024-02-06T04:09:16.821Z,116.81
2024-02-06T04:10:16.892Z,117.67
2024-02-06T04:11:16.743Z,117.51
2024-02-06T04:12:16.747Z,118.07
2024-02-06T04:13:16.912Z,117.35
2024-02-06T04:14:16.774Z,117.27
2024-02-06T04:15:16.806Z,115.94
2024-02-06T04:16:16.788Z,116.12
2024-02-06T04:17:17.075Z,115.89
2024-02-06T04:18:16.864Z,117.08
2024-02-06T04:19:16.893Z,116.05
2024-02-06T04:20:17.100Z,114.17
2024-02-06T04:21:16.771Z,115.48
2024-02-06T04:22:16.836Z,116.12
2024-02-06T04:23:16.760Z,112.96
2024-02-06T04:24:16.773Z,113.54
2024-02-06T04:25:16.774Z,114.19
2024-02-06T04:26:16.850Z,115.51
2024-02-06T04:27:16.784Z,113.96
2024-02-06T04:28:16.850Z,114.51
2024-02-06T04:29:16.802Z,113.32
2024-02-06T04:30:16.827Z,113.22
2024-02-06T04:31:24.102Z,50.00
2024-02-06T04:32:24.168Z,50.00
2024-02-06T04:33:24.153Z,50.00
2024-02-06T04:34:24.175Z,50.00
2024-02-06T04:35:24.126Z,50.00
2024-02-06T04:36:24.155Z,50.00
2024-02-06T04:37:24.171Z,51.65
2024-02-06T04:38:24.099Z,52.68
2024-02-06T04:39:24.045Z,51.70
2024-02-06T04:40:24.484Z,51.00
2024-02-06T04:41:24.165Z,51.77
2024-02-06T04:42:24.079Z,53.34
2024-02-06T04:43:24.188Z,50.63
2024-02-06T04:44:24.121Z,52.97
2024-02-06T04:45:24.121Z,50.83
2024-02-06T04:46:24.154Z,53.12
2024-02-06T04:47:24.160Z,53.22
2024-02-06T04:48:24.063Z,53.11
2024-02-06T04:49:24.129Z,52.47
2024-02-06T04:50:24.135Z,51.29
2024-02-06T04:51:24.109Z,50.24
2024-02-06T04:52:24.216Z,51.27
2024-02-06T04:53:24.101Z,52.25
2024-02-06T04:54:24.139Z,50.83
2024-02-06T04:55:24.170Z,51.48
2024-02-06T04:56:24.362Z,53.32
2024-02-06T04:57:24.114Z,53.30
2024-02-06T04:58:24.242Z,51.90
2024-02-06T04:59:24.124Z,53.60
2024-02-06T05:00:24.078Z,52.74
2024-02-06T05:01:24.276Z,52.95
2024-02-06T05:02:25.146Z,52.90
2024-02-06T05:03:24.139Z,51.23
2024-02-06T05:04:24.278Z,52.17
2024-02-06T05:05:24.148Z,51.73
2024-02-06T05:06:24.268Z,50.21
2024-02-06T05:07:24.186Z,51.59
2024-02-06T05:08:24.325Z,51.20
2024-02-06T05:09:24.178Z,52.72
2024-02-06T05:10:24.112Z,52.14
2024-02-06T05:11:24.185Z,52.01
2024-02-06T05:12:24.170Z,50.41
2024-02-06T05:13:24.457Z,52.14
2024-02-06T05:14:24.438Z,51.34
2024-02-06T05:15:24.433Z,50.31
2024-02-06T05:16:24.579Z,50.86
2024-02-06T05:17:24.547Z,51.87
2024-02-06T05:18:24.763Z,51.50
2024-02-06T05:19:24.804Z,51.41
2024-02-06T05:20:24.719Z,50.71
2024-02-06T05:21:24.806Z,50.92
2024-02-06T05:22:24.888Z,52.18
2024-02-06T05:23:25.030Z,50.38
2024-02-06T05:24:25.255Z,52.33
2024-02-06T05:25:25.373Z,52.09
2024-02-06T05:26:25.353Z,50.56
2024-02-06T05:27:25.193Z,51.02
2024-02-06T05:28:25.422Z,51.68
2024-02-06T05:29:25.472Z,52.33
2024-02-06T05:30:25.433Z,52.08
2024-02-06T05:31:25.557Z,51.21
2024-02-06T05:32:25.644Z,52.17
2024-02-06T05:33:25.659Z,50.80
2024-02-06T05:34:25.828Z,50.34
2024-02-06T05:35:26.120Z,50.03
2024-02-06T05:36:25.897Z,51.96
2024-02-06T05:37:25.948Z,52.02
2024-02-06T05:38:26.031Z,50.44
2024-02-06T05:39:26.052Z,51.85
2024-02-06T05:40:26.142Z,51.90
2024-02-06T05:41:26.224Z,54.08
2024-02-06T05:42:26.268Z,53.85
2024-02-06T05:43:26.434Z,54.84
2024-02-06T05:44:26.623Z,53.35
2024-02-06T05:45:26.505Z,54.30
2024-02-06T05:46:26.626Z,53.82
2024-02-06T05:47:26.605Z,52.38
2024-02-06T05:48:26.756Z,56.43
2024-02-06T05:49:26.918Z,53.36
2024-02-06T05:50:26.940Z,52.83
2024-02-06T05:51:26.906Z,54.54
2024-02-06T05:52:27.047Z,54.23
2024-02-06T05:53:26.975Z,56.14
2024-02-06T05:54:27.136Z,52.95
2024-02-06T05:55:27.172Z,55.46
2024-02-06T05:56:27.258Z,53.65
2024-02-06T05:57:27.250Z,53.98
2024-02-06T05:58:27.391Z,54.10
2024-02-06T05:59:27.420Z,55.35
2024-02-06T06:00:27.619Z,56.25
2024-02-06T06:01:27.664Z,55.70
2024-02-06T06:02:27.729Z,54.48
2024-02-06T06:03:27.809Z,55.51
2024-02-06T06:04:31.057Z,57.76
2024-02-06T06:05:28.194Z,57.11
2024-02-06T06:06:27.952Z,56.64
2024-02-06T06:07:28.045Z,57.05
2024-02-06T06:08:27.827Z,59.76
2024-02-06T06:09:27.896Z,59.95
2024-02-06T06:10:28.356Z,56.30
2024-02-06T06:11:27.821Z,58.88
2024-02-06T06:12:27.825Z,56.83
2024-02-06T06:13:27.950Z,57.88
2024-02-06T06:14:28.153Z,57.58
2024-02-06T06:15:27.782Z,57.91
2024-02-06T06:16:27.839Z,56.89
2024-02-06T06:17:28.525Z,59.75
2024-02-06T06:18:27.859Z,60.45
2024-02-06T06:19:27.984Z,61.10
2024-02-06T06:20:28.861Z,60.74
2024-02-06T06:21:27.803Z,62.19
2024-02-06T06:22:27.870Z,62.63
2024-02-06T06:23:27.793Z,64.88
2024-02-06T06:24:28.121Z,64.89
2024-02-06T06:25:27.910Z,60.16
2024-02-06T06:26:27.926Z,61.26
2024-02-06T06:27:27.905Z,63.41
2024-02-06T06:28:27.960Z,64.74
2024-02-06T06:29:28.573Z,61.26
2024-02-06T06:30:28.384Z,65.28
2024-02-06T06:31:27.842Z,66.29
2024-02-06T06:32:27.911Z,70.35
2024-02-06T06:33:28.113Z,69.46
2024-02-06T06:34:28.260Z,69.96
2024-02-06T06:35:28.910Z,73.56
2024-02-06T06:36:28.233Z,74.03
2024-02-06T06:37:28.038Z,73.47
2024-02-06T06:38:28.009Z,72.93
2024-02-06T06:39:28.024Z,71.42
2024-02-06T06:40:28.151Z,73.26
2024-02-06T06:41:28.356Z,73.47
2024-02-06T06:42:28.109Z,75.80
2024-02-06T06:43:30.066Z,76.21
2024-02-06T06:44:28.254Z,77.15
2024-02-06T06:45:28.157Z,77.32
2024-02-06T06:46:28.179Z,81.02
2024-02-06T06:47:28.148Z,83.68
2024-02-06T06:48:28.418Z,88.89
2024-02-06T06:49:28.349Z,89.10
2024-02-06T06:50:28.397Z,91.15
2024-02-06T06:51:28.450Z,90.50
2024-02-06T06:52:28.391Z,88.53
2024-02-06T06:53:28.427Z,87.01
2024-02-06T06:54:29.346Z,85.35
2024-02-06T06:55:29.126Z,87.50
2024-02-06T06:56:29.622Z,90.70
2024-02-06T06:57:29.312Z,89.55
2024-02-06T06:58:28.995Z,89.33
2024-02-06T06:59:28.680Z,88.97
2024-02-06T07:00:29.527Z,86.01
2024-02-06T07:01:29.776Z,89.91
2024-02-06T07:02:29.309Z,89.64
2024-02-06T07:03:29.401Z,85.93
2024-02-06T07:04:30.111Z,89.76
2024-02-06T07:05:29.143Z,88.35
2024-02-06T07:06:29.313Z,89.01
2024-02-06T07:07:29.241Z,93.21
2024-02-06T07:08:29.204Z,91.75
2024-02-06T07:09:30.379Z,89.06
2024-02-06T07:10:29.611Z,91.00
2024-02-06T07:11:29.517Z,91.53
2024-02-06T07:12:29.522Z,89.75
2024-02-06T07:13:29.516Z,92.75
2024-02-06T07:14:30.131Z,87.78
2024-02-06T07:15:29.726Z,93.63
2024-02-06T07:16:29.779Z,95.02
2024-02-06T07:17:29.866Z,96.27
2024-02-06T07:18:29.911Z,99.84
2024-02-06T07:19:31.265Z,98.21
2024-02-06T07:20:30.241Z,103.95
2024-02-06T07:21:29.990Z,99.33
2024-02-06T07:22:30.272Z,102.79
2024-02-06T07:23:30.132Z,104.69
2024-02-06T07:24:30.799Z,105.15
2024-02-06T07:25:34.731Z,107.24
2024-02-06T07:26:30.184Z,105.71
2024-02-06T07:27:30.183Z,105.09
2024-02-06T07:28:30.305Z,105.79
2024-02-06T07:29:30.321Z,110.81
2024-02-06T07:30:36.727Z,110.71
2024-02-06T07:31:31.174Z,107.46
2024-02-06T07:32:30.584Z,108.26
2024-02-06T07:33:30.339Z,110.22
2024-02-06T07:34:30.298Z,112.93
2024-02-06T07:35:30.400Z,116.25
2024-02-06T07:36:30.498Z,111.15
2024-02-06T07:37:30.424Z,118.37
2024-02-06T07:38:30.447Z,124.69
2024-02-06T07:39:30.250Z,128.89
2024-02-06T07:40:30.251Z,131.49
2024-02-06T07:41:30.207Z,134.36
2024-02-06T07:42:30.477Z,131.11
2024-02-06T07:43:31.340Z,129.00
2024-02-06T07:44:32.459Z,122.78
2024-02-06T07:45:31.050Z,119.15
2024-02-06T07:46:30.247Z,115.00
2024-02-06T07:47:30.263Z,113.65
2024-02-06T07:48:33.596Z,113.80
2024-02-06T07:49:30.386Z,117.53
2024-02-06T07:50:30.977Z,120.77
2024-02-06T07:51:30.231Z,124.11
2024-02-06T07:52:30.219Z,121.63
2024-02-06T07:53:30.772Z,120.36
2024-02-06T07:54:30.425Z,121.72
2024-02-06T07:55:30.639Z,121.68
2024-02-06T07:56:32.782Z,122.20
2024-02-06T07:57:31.093Z,124.71
2024-02-06T07:58:30.287Z,126.56
2024-02-06T07:59:30.497Z,125.74
2024-02-06T08:00:30.703Z,129.40
2024-02-06T08:01:30.876Z,132.40
2024-02-06T08:02:30.303Z,137.83
2024-02-06T08:03:30.423Z,138.47
2024-02-06T08:04:30.381Z,138.93
2024-02-06T08:05:30.365Z,141.82
2024-02-06T08:06:31.514Z,142.50
2024-02-06T08:07:30.475Z,141.37
2024-02-06T08:08:30.266Z,141.30
2024-02-06T08:09:30.340Z,147.78
2024-02-06T08:10:30.735Z,157.29
2024-02-06T08:11:30.318Z,164.70
2024-02-06T08:12:30.262Z,167.52
2024-02-06T08:13:30.299Z,163.86
2024-02-06T08:14:30.946Z,159.26
2024-02-06T08:15:30.309Z,157.34
2024-02-06T08:16:30.343Z,155.76
2024-02-06T08:17:30.358Z,153.72
2024-02-06T08:18:31.050Z,150.77
2024-02-06T08:19:30.585Z,150.00
2024-02-06T08:20:30.692Z,149.45
2024-02-06T08:21:30.631Z,145.89
2024-02-06T08:22:30.772Z,144.24
2024-02-06T08:23:30.819Z,141.00
2024-02-06T08:24:30.829Z,141.33
2024-02-06T08:25:32.227Z,138.00
2024-02-06T08:26:30.875Z,140.27
2024-02-06T08:27:31.750Z,137.00
2024-02-06T08:28:31.411Z,143.05
2024-02-06T08:29:30.868Z,141.19
2024-02-06T08:30:30.893Z,135.99
2024-02-06T08:31:30.827Z,139.75
2024-02-06T08:32:30.843Z,138.90
2024-02-06T08:33:30.831Z,136.68
2024-02-06T08:34:31.350Z,131.85
2024-02-06T08:35:30.956Z,133.02
2024-02-06T08:36:31.054Z,132.29
2024-02-06T08:37:32.099Z,132.36
2024-02-06T08:38:31.537Z,139.25
2024-02-06T08:39:30.806Z,133.40
2024-02-06T08:40:31.006Z,129.71
2024-02-06T08:41:30.922Z,128.67
2024-02-06T08:42:31.799Z,134.52
2024-02-06T08:43:39.585Z,125.07
2024-02-06T08:44:32.835Z,125.38
2024-02-06T08:45:31.420Z,126.45
2024-02-06T08:46:31.072Z,129.38
2024-02-06T08:47:31.021Z,134.98
2024-02-06T08:48:36.256Z,134.27
2024-02-06T08:49:31.938Z,125.48
2024-02-06T08:50:35.875Z,127.36
2024-02-06T08:51:30.947Z,125.50
2024-02-06T08:52:31.997Z,126.66
2024-02-06T08:53:30.972Z,130.73
2024-02-06T08:54:31.435Z,132.86
2024-02-06T08:55:31.189Z,138.43
2024-02-06T08:56:32.989Z,140.46
2024-02-06T08:57:32.084Z,139.59
2024-02-06T08:58:30.954Z,134.59
2024-02-06T08:59:30.870Z,131.80
2024-02-06T09:00:31.009Z,137.23
2024-02-06T09:01:31.100Z,134.26
2024-02-06T09:02:31.514Z,128.99
2024-02-06T09:03:31.125Z,133.81
2024-02-06T09:04:32.066Z,132.61
2024-02-06T09:05:31.553Z,128.36
2024-02-06T09:06:31.247Z,131.18
2024-02-06T09:07:31.355Z,134.19
2024-02-06T09:08:31.429Z,122.12
2024-02-06T09:09:31.390Z,125.23
2024-02-06T09:10:32.330Z,127.70
2024-02-06T09:11:31.537Z,127.84
2024-02-06T09:12:34.574Z,127.21
2024-02-06T09:13:31.651Z,129.41
2024-02-06T09:14:33.304Z,125.99
2024-02-06T09:15:31.648Z,126.04
2024-02-06T09:16:31.556Z,126.66
2024-02-06T09:17:31.904Z,122.40
2024-02-06T09:18:31.740Z,122.43
2024-02-06T09:19:31.613Z,121.05
2024-02-06T09:20:33.077Z,118.30
2024-02-06T09:21:31.563Z,118.46
2024-02-06T09:22:31.926Z,118.44
2024-02-06T09:23:31.624Z,118.39
2024-02-06T09:24:32.140Z,114.76
2024-02-06T09:25:31.840Z,117.50
2024-02-06T09:26:31.709Z,114.76
2024-02-06T09:27:31.755Z,119.71
2024-02-06T09:28:31.734Z,121.88
2024-02-06T09:29:31.980Z,123.52
2024-02-06T09:30:31.930Z,128.77
2024-02-06T09:31:31.832Z,131.73
2024-02-06T09:32:31.875Z,133.38
2024-02-06T09:33:32.362Z,134.48
2024-02-06T09:34:32.165Z,136.61
2024-02-06T09:35:32.151Z,138.86
2024-02-06T09:36:32.071Z,140.91
2024-02-06T09:37:32.159Z,138.81
2024-02-06T09:38:32.281Z,138.75
2024-02-06T09:39:32.302Z,136.92
2024-02-06T09:40:32.438Z,135.39
2024-02-06T09:41:32.412Z,132.43
2024-02-06T09:42:32.661Z,127.77
2024-02-06T09:43:32.828Z,122.90
2024-02-06T09:44:32.864Z,118.84
2024-02-06T09:45:34.654Z,114.84
2024-02-06T09:46:32.936Z,113.64
2024-02-06T09:47:32.828Z,118.62
2024-02-06T09:48:33.517Z,116.80
2024-02-06T09:49:33.008Z,116.29
2024-02-06T09:50:33.744Z,111.67
2024-02-06T09:51:32.962Z,109.87
2024-02-06T09:52:34.894Z,110.06
2024-02-06T09:53:33.347Z,111.89
2024-02-06T09:54:33.175Z,107.12
2024-02-06T09:55:33.391Z,114.70
2024-02-06T09:56:33.177Z,109.04
2024-02-06T09:57:34.169Z,105.37
2024-02-06T09:58:37.023Z,111.04
2024-02-06T09:59:33.454Z,110.35
2024-02-06T10:00:33.297Z,109.66
2024-02-06T10:01:33.372Z,105.84
2024-02-06T10:02:33.282Z,106.03
2024-02-06T10:03:33.350Z,103.19
2024-02-06T10:04:33.766Z,110.63
2024-02-06T10:05:38.762Z,103.99
2024-02-06T10:06:42.475Z,50.00
2024-02-06T10:07:43.063Z,50.00
2024-02-06T10:08:42.632Z,50.00
2024-02-06T10:09:42.545Z,50.00
2024-02-06T10:10:43.416Z,50.00
2024-02-06T10:11:42.500Z,54.45
2024-02-06T10:12:43.031Z,52.64
2024-02-06T10:13:42.645Z,51.40
2024-02-06T10:14:45.276Z,51.02
2024-02-06T10:15:42.954Z,48.99
2024-02-06T10:16:42.689Z,45.94
2024-02-06T10:17:42.426Z,49.88
2024-02-06T10:18:46.311Z,48.99
2024-02-06T10:19:42.680Z,51.10
2024-02-06T10:20:42.475Z,49.32
2024-02-06T10:21:44.678Z,50.79
2024-02-06T10:22:43.525Z,49.38
2024-02-06T10:23:42.512Z,45.74
2024-02-06T10:24:42.550Z,51.54
2024-02-06T10:25:43.062Z,52.67
2024-02-06T10:26:42.587Z,53.06
2024-02-06T10:27:42.667Z,52.00
2024-02-06T10:28:42.902Z,56.86
2024-02-06T10:29:42.690Z,50.00
2024-02-06T10:30:45.008Z,53.17
2024-02-06T10:31:43.252Z,51.73
2024-02-06T10:32:42.965Z,52.40
2024-02-06T10:33:43.848Z,50.95
2024-02-06T10:34:42.903Z,53.73
2024-02-06T10:35:42.967Z,52.38
2024-02-06T10:36:42.824Z,54.36
2024-02-06T10:37:43.774Z,52.75
2024-02-06T10:38:42.855Z,57.38
2024-02-06T10:39:43.252Z,56.99
2024-02-06T10:40:44.072Z,57.65
2024-02-06T10:42:08.498Z,59.23
2024-02-06T10:43:46.667Z,59.41
2024-02-06T10:44:43.053Z,59.52
2024-02-06T10:45:44.040Z,60.09
2024-02-06T10:46:43.300Z,62.26
2024-02-06T10:47:43.010Z,64.55
2024-02-06T10:48:42.995Z,69.57
2024-02-06T10:49:43.069Z,67.87
2024-02-06T10:50:43.920Z,67.27
2024-02-06T10:51:43.057Z,71.18
2024-02-06T10:52:43.601Z,72.28
2024-02-06T10:53:43.037Z,69.61
2024-02-06T10:54:43.262Z,70.58
2024-02-06T10:55:43.457Z,73.20
2024-02-06T10:56:43.180Z,73.53
2024-02-06T10:57:43.285Z,71.04
2024-02-06T10:58:43.397Z,73.94
2024-02-06T10:59:44.137Z,74.60
2024-02-06T11:00:43.714Z,72.32
2024-02-06T11:01:43.859Z,72.18
2024-02-06T11:02:43.474Z,75.43
2024-02-06T11:03:43.447Z,71.52
2024-02-06T11:04:43.527Z,71.78
2024-02-06T11:05:43.966Z,71.45
2024-02-06T11:06:44.810Z,74.14
2024-02-06T11:07:43.796Z,74.61
2024-02-06T11:08:44.491Z,74.38
2024-02-06T11:09:48.431Z,72.84
2024-02-06T11:10:43.833Z,73.00
2024-02-06T11:11:43.695Z,72.95
2024-02-06T11:12:43.645Z,72.39
2024-02-06T11:13:43.784Z,73.66
2024-02-06T11:14:43.829Z,72.99
2024-02-06T11:15:44.988Z,72.90
2024-02-06T11:16:44.542Z,73.15
2024-02-06T11:17:44.255Z,73.75
2024-02-06T11:18:43.706Z,74.12
2024-02-06T11:19:44.567Z,72.38
2024-02-06T11:20:43.649Z,71.41
2024-02-06T11:21:44.099Z,71.86
2024-02-06T11:22:43.766Z,72.33
2024-02-06T11:23:45.608Z,72.27
2024-02-06T11:24:43.660Z,74.54
2024-02-06T11:25:43.858Z,73.68
2024-02-06T11:26:44.501Z,75.39
2024-02-06T11:27:43.893Z,74.51
2024-02-06T11:28:45.465Z,75.74
2024-02-06T11:29:43.974Z,76.53
2024-02-06T11:30:43.711Z,76.58
2024-02-06T11:31:44.607Z,77.81
2024-02-06T11:32:43.909Z,80.25
2024-02-06T11:33:43.972Z,78.23
2024-02-06T11:34:44.062Z,81.49
2024-02-06T11:35:43.810Z,82.81
2024-02-06T11:36:44.296Z,83.56
2024-02-06T11:37:44.828Z,81.89
2024-02-06T11:38:43.838Z,80.16
2024-02-06T11:39:44.140Z,76.71
2024-02-06T11:40:43.901Z,76.29
2024-02-06T11:41:43.955Z,73.79
2024-02-06T11:42:43.853Z,74.64
2024-02-06T11:43:44.047Z,72.59
2024-02-06T11:44:43.904Z,73.26
2024-02-06T11:45:44.428Z,69.47
2024-02-06T11:46:46.768Z,72.03
2024-02-06T11:47:43.989Z,71.84
2024-02-06T11:48:44.257Z,69.81
2024-02-06T11:49:45.207Z,68.53
2024-02-06T11:50:44.045Z,69.07
2024-02-06T11:51:43.924Z,69.91
2024-02-06T11:52:44.573Z,70.04
2024-02-06T11:53:43.880Z,70.86
2024-02-06T11:54:44.811Z,69.75
2024-02-06T11:55:44.000Z,69.70
2024-02-06T11:56:43.955Z,68.29
2024-02-06T11:57:43.960Z,72.77
2024-02-06T11:58:44.023Z,75.04
2024-02-06T11:59:44.123Z,77.92
2024-02-06T12:00:44.289Z,77.55
2024-02-06T12:01:45.293Z,77.81
2024-02-06T12:02:44.079Z,76.33
2024-02-06T12:03:43.901Z,77.92
2024-02-06T12:04:43.963Z,76.01
2024-02-06T12:05:45.640Z,72.50
2024-02-06T12:06:44.413Z,71.45
2024-02-06T12:07:45.371Z,71.30
2024-02-06T12:08:43.962Z,71.64
2024-02-06T12:09:43.977Z,69.08
2024-02-06T12:10:43.960Z,66.71
2024-02-06T12:11:46.941Z,65.87
2024-02-06T12:12:43.952Z,63.17
2024-02-06T12:13:44.867Z,60.67
2024-02-06T12:14:43.983Z,62.74
2024-02-06T12:15:44.992Z,62.63
2024-02-06T12:16:44.129Z,61.48
2024-02-06T12:17:44.898Z,58.17
2024-02-06T12:18:44.073Z,53.67
2024-02-06T12:19:44.800Z,51.86
2024-02-06T12:20:44.280Z,50.43
2024-02-06T12:21:43.982Z,50.00
2024-02-06T12:22:44.168Z,50.44
2024-02-06T12:23:43.972Z,50.00
2024-02-06T12:24:43.945Z,54.40
2024-02-06T12:25:44.141Z,51.84
2024-02-06T12:26:43.986Z,50.52
2024-02-06T12:27:43.895Z,53.29
2024-02-06T12:28:44.090Z,50.96
2024-02-06T12:29:43.964Z,52.36
2024-02-06T12:30:43.963Z,52.09
2024-02-06T12:31:44.079Z,50.11
2024-02-06T12:32:44.136Z,50.00
2024-02-06T12:33:44.047Z,51.61
2024-02-06T12:34:44.073Z,50.00
2024-02-06T12:35:43.965Z,50.00
2024-02-06T12:36:43.948Z,51.22
2024-02-06T12:37:43.988Z,51.27
2024-02-06T12:38:43.904Z,50.19
2024-02-06T12:39:43.993Z,51.05